Time;durP1;ratioP1;P1;durP2;ratioP2;P2;SDS_P1;SDS_P2;PMS_P1;PMS_P2;Temp;Humidity;BMP_temperature;BMP_pressure;BME280_temperature;BME280_humidity;BME280_pressure;Samples;Min_cycle;Max_cycle;Signal;HPM_P1;HPM_P2
2023/08/18 20:33:26;;;;;;;17.27;15.25;;;20.70;99.90;;;;;;5149650;27;20486;-62
2023/08/18 20:35:53;;;;;;;18.80;15.32;;;20.60;99.90;;;;;;5132805;22;20560;-62
2023/08/18 20:38:19;;;;;;;20.65;16.73;;;20.50;99.90;;;;;;5090622;28;20099;-62
2023/08/18 20:40:45;;;;;;;17.42;15.48;;;20.50;99.90;;;;;;5090688;28;20020;-62
2023/08/18 20:43:12;;;;;;;17.90;16.02;;;20.50;99.90;;;;;;5090862;28;20020;-63
2023/08/18 20:45:38;;;;;;;17.98;16.08;;;20.40;99.90;;;;;;5090197;28;20041;-63
2023/08/18 20:48:05;;;;;;;16.85;14.82;;;20.40;99.90;;;;;;5090546;28;20025;-63
2023/08/18 20:50:31;;;;;;;19.48;17.40;;;20.40;99.90;;;;;;5090488;28;20024;-63
2023/08/18 20:52:58;;;;;;;20.10;16.35;;;20.40;99.90;;;;;;5090632;28;20441;-62
2023/08/18 20:55:24;;;;;;;18.67;16.52;;;20.40;99.90;;;;;;5090386;28;20136;-63
2023/08/18 20:57:51;;;;;;;18.05;16.20;;;19.90;99.90;;;;;;5090345;28;20056;-63
2023/08/18 21:00:17;;;;;;;19.10;16.67;;;20.40;99.90;;;;;;5090592;28;20024;-63
2023/08/18 21:02:42;;;;;;;21.50;17.67;;;20.30;99.90;;;;;;5088967;28;20123;-62
2023/08/18 21:05:09;;;;;;;17.63;15.70;;;20.30;99.90;;;;;;5090228;28;20049;-63
2023/08/18 21:07:34;;;;;;;18.10;16.02;;;20.20;99.90;;;;;;5090371;28;20069;-62
2023/08/18 21:10:01;;;;;;;18.60;16.70;;;20.20;99.90;;;;;;5090575;28;20028;-62
2023/08/18 21:12:27;;;;;;;17.80;15.93;;;20.20;99.90;;;;;;5088854;28;20024;-63
2023/08/18 21:14:52;;;;;;;17.48;15.68;;;20.20;99.90;;;;;;5090255;28;20024;-63
2023/08/18 21:17:18;;;;;;;17.80;16.00;;;20.10;99.90;;;;;;5090063;28;20111;-68
2023/08/18 21:19:44;;;;;;;17.90;16.05;;;20.10;99.90;;;;;;5089792;28;20031;-67
2023/08/18 21:22:10;;;;;;;21.58;16.63;;;20.10;99.90;;;;;;5088547;28;20048;-68
2023/08/18 21:24:36;;;;;;;18.08;16.25;;;20.10;99.90;;;;;;5089728;28;20094;-63
2023/08/18 21:27:01;;;;;;;18.83;16.25;;;20.10;99.90;;;;;;5090020;28;20374;-63
2023/08/18 21:29:27;;;;;;;17.85;16.00;;;20.10;99.90;;;;;;5090788;28;20449;-65
2023/08/18 21:31:53;;;;;;;20.63;17.73;;;20.00;99.90;;;;;;5102116;28;20147;-64
2023/08/18 21:34:19;;;;;;;19.27;17.30;;;20.00;99.90;;;;;;5083712;28;20037;-63
2023/08/18 21:36:45;;;;;;;17.90;15.90;;;20.00;99.90;;;;;;5079864;28;20047;-63
2023/08/18 21:39:11;;;;;;;22.98;17.40;;;20.00;99.90;;;;;;5076417;28;20021;-63
2023/08/18 21:41:36;;;;;;;18.70;16.75;;;19.90;99.90;;;;;;5076181;28;20515;-63
2023/08/18 21:44:02;;;;;;;21.20;17.85;;;19.90;99.90;;;;;;5076446;28;20024;-63
2023/08/18 21:46:28;;;;;;;19.27;17.33;;;19.90;99.90;;;;;;5074437;28;20489;-63
2023/08/18 21:48:53;;;;;;;19.52;17.52;;;19.80;99.90;;;;;;5075932;28;20078;-63
2023/08/18 21:51:19;;;;;;;20.42;17.73;;;19.80;99.90;;;;;;5075570;28;20028;-62
2023/08/18 21:53:45;;;;;;;19.52;17.63;;;19.80;99.90;;;;;;5075852;28;20107;-63
2023/08/18 21:56:10;;;;;;;21.05;18.45;;;19.70;99.90;;;;;;5075059;28;20457;-66
2023/08/18 21:58:36;;;;;;;20.13;18.10;;;19.80;99.90;;;;;;5076246;28;20453;-66
2023/08/18 22:01:02;;;;;;;19.15;16.63;;;19.70;99.90;;;;;;5076367;28;20032;-66
2023/08/18 22:03:28;;;;;;;19.42;17.48;;;19.70;99.90;;;;;;5076216;28;20024;-66
2023/08/18 22:05:54;;;;;;;19.00;17.17;;;19.70;99.90;;;;;;5074198;28;20127;-66
2023/08/18 22:08:19;;;;;;;20.27;18.38;;;19.70;99.90;;;;;;5075503;28;20067;-66
2023/08/18 22:10:48;;;;;;;22.30;18.88;;;19.60;99.90;;;;;;5075472;28;20520;-66
2023/08/18 22:13:13;;;;;;;20.38;18.33;;;19.60;99.90;;;;;;5075571;28;20056;-66
2023/08/18 22:15:39;;;;;;;21.05;18.85;;;19.50;99.90;;;;;;5075468;28;20129;-66
2023/08/18 22:18:05;;;;;;;19.92;17.88;;;19.50;99.90;;;;;;5075443;28;20024;-66
2023/08/18 22:20:30;;;;;;;19.63;17.73;;;19.50;99.90;;;;;;5074688;28;20078;-66
2023/08/18 22:22:56;;;;;;;20.83;18.48;;;19.40;99.90;;;;;;5075418;28;20032;-66
2023/08/18 22:25:22;;;;;;;20.60;18.42;;;19.40;99.90;;;;;;5073971;28;20507;-66
2023/08/18 22:27:50;;;;;;;19.67;17.10;;;19.30;99.90;;;;;;5074923;28;20024;-66
2023/08/18 22:30:16;;;;;;;23.13;19.40;;;19.40;99.90;;;;;;5074867;28;20032;-66
2023/08/18 22:32:41;;;;;;;21.42;19.30;;;19.30;99.90;;;;;;5074727;28;20024;-66
2023/08/18 22:35:08;;;;;;;23.02;20.48;;;19.30;99.90;;;;;;5075308;28;20037;-66
2023/08/18 22:37:34;;;;;;;21.23;19.13;;;19.30;99.90;;;;;;5075440;28;20386;-66
2023/08/18 22:40:00;;;;;;;22.27;19.83;;;19.20;99.90;;;;;;5075152;28;20516;-66
2023/08/18 22:42:25;;;;;;;21.40;19.10;;;19.20;99.90;;;;;;5074382;28;20401;-66
2023/08/18 22:44:51;;;;;;;21.67;18.85;;;19.10;99.90;;;;;;5074313;28;20032;-66
2023/08/18 22:47:18;;;;;;;21.55;19.33;;;19.10;99.90;;;;;;5073807;28;20454;-66
2023/08/18 22:49:45;;;;;;;22.50;19.85;;;19.10;99.90;;;;;;5074809;28;20033;-66
2023/08/18 22:52:11;;;;;;;21.17;19.00;;;19.10;99.90;;;;;;5073392;28;20110;-66
2023/08/18 22:54:40;;;;;;;23.45;20.25;;;19.10;99.90;;;;;;5074877;28;20052;-66
2023/08/18 22:57:06;;;;;;;22.67;20.02;;;19.00;99.90;;;;;;5074858;28;20029;-66
2023/08/18 22:59:32;;;;;;;23.20;20.73;;;19.00;99.90;;;;;;5074353;28;20397;-66
2023/08/18 23:01:58;;;;;;;23.25;20.77;;;19.00;99.90;;;;;;5073273;28;20461;-66
2023/08/18 23:04:24;;;;;;;21.95;19.60;;;19.00;99.90;;;;;;5074726;28;20035;-66
2023/08/18 23:06:51;;;;;;;21.60;19.48;;;19.00;99.90;;;;;;5074463;28;20032;-66
2023/08/18 23:09:17;;;;;;;25.30;20.52;;;19.00;99.90;;;;;;5073144;28;20025;-66
2023/08/18 23:11:44;;;;;;;24.85;20.88;;;18.90;99.90;;;;;;5074624;28;20031;-66
2023/08/18 23:14:10;;;;;;;22.13;20.02;;;18.90;99.90;;;;;;5074601;28;20020;-66
2023/08/18 23:16:36;;;;;;;21.58;19.48;;;18.90;99.90;;;;;;5073041;28;20457;-65
2023/08/18 23:19:02;;;;;;;22.00;19.60;;;18.90;99.90;;;;;;5074444;28;20063;-66
2023/08/18 23:21:27;;;;;;;22.65;20.42;;;18.90;99.90;;;;;;5074547;28;20504;-66
2023/08/18 23:23:53;;;;;;;21.30;19.08;;;18.80;99.90;;;;;;5073778;28;20024;-66
2023/08/18 23:26:19;;;;;;;22.48;20.10;;;18.80;99.90;;;;;;5072900;28;20047;-66
2023/08/18 23:28:46;;;;;;;23.00;19.38;;;18.80;99.90;;;;;;5074388;28;20025;-66
2023/08/18 23:31:12;;;;;;;22.23;20.13;;;18.80;99.90;;;;;;5072635;28;20115;-66
2023/08/18 23:33:37;;;;;;;21.42;19.33;;;18.80;99.90;;;;;;5074223;28;20109;-66
2023/08/18 23:36:03;;;;;;;23.50;21.25;;;18.80;99.90;;;;;;5072411;28;20102;-66
2023/08/18 23:38:32;;;;;;;23.10;20.80;;;18.70;99.90;;;;;;5072519;28;20028;-66
2023/08/18 23:40:58;;;;;;;24.73;21.20;;;18.70;99.90;;;;;;5072639;28;20512;-66
2023/08/18 23:43:25;;;;;;;26.85;21.13;;;18.70;99.90;;;;;;5074099;28;20032;-66
2023/08/18 23:45:51;;;;;;;23.33;21.05;;;18.70;99.90;;;;;;5073710;28;20449;-66
2023/08/18 23:48:17;;;;;;;24.20;20.85;;;18.60;99.90;;;;;;5072562;28;20120;-66
2023/08/18 23:50:42;;;;;;;21.75;19.35;;;18.60;99.90;;;;;;5073944;28;20025;-66
2023/08/18 23:53:08;;;;;;;23.33;20.75;;;18.60;99.90;;;;;;5073511;28;20396;-66
2023/08/18 23:55:33;;;;;;;22.58;20.17;;;18.60;99.90;;;;;;5073773;28;20421;-66
2023/08/18 23:57:59;;;;;;;22.90;20.48;;;18.60;99.90;;;;;;5072180;28;20028;-66
